Terminal Aerodrome Forecast
Issued by NWS Indianapolis, IN

Home | Current Version | Previous Version | Text Only | Print | Product List | Glossary On
Versions: 1 2 3 4 5 6 7 8 9 10 11 12 13 14 15 16 17 18 19 20 21 22 23 24 25
000
FTUS43 KIND 241139 AAB
TAFIND
TAF AMD
KIND 241139Z 2412/2518 20007KT P6SM SCT160 BKN250 WS020/21040KT
     FM241400 19011G22KT P6SM SCT070
     FM242100 21013G26KT P6SM VCTS BKN050CB
     FM242300 22011G24KT P6SM -SHRA VCTS OVC040CB
     FM250200 26011G22KT P6SM -SHRA VCTS OVC035CB
     FM250300 27011G21KT P6SM VCSH OVC060
     FM250500 27012G21KT P6SM BKN040
     FM250700 26012G22KT P6SM BKN030
     FM250900 26013G24KT P6SM BKN030
     FM251200 27012G24KT P6SM BKN035
     FM251400 27014G23KT P6SM OVC025=

USA.gov is the U.S. government's official web portal to all federal, state and local government web resources and services.